Time;durP1;ratioP1;P1;durP2;ratioP2;P2;SDS_P1;SDS_P2;PMS_P1;PMS_P2;Temp;Humidity;BMP_temperature;BMP_pressure;BME280_temperature;BME280_humidity;BME280_pressure;Samples;Min_cycle;Max_cycle;Signal;HPM_P1;HPM_P2
2022/12/09 00:03:36;;;;;;;11.13;8.53;;;;;;;2.28;52.54;99024.59;10386035;28;20231;-33
2022/12/09 00:08:38;;;;;;;9.27;7.37;;;;;;;1.75;52.61;99011.13;10380647;28;20357;-34
2022/12/09 00:13:40;;;;;;;10.13;7.20;;;;;;;0.93;54.26;99030.19;10387058;28;20228;-38
2022/12/09 00:18:42;;;;;;;8.97;7.53;;;;;;;1.09;52.99;99025.19;10391809;28;20758;-36
2022/12/09 00:23:44;;;;;;;10.53;7.30;;;;;;;1.62;52.57;99034.38;10390572;28;20624;-35
2022/12/09 00:28:47;;;;;;;7.63;6.60;;;;;;;0.99;53.20;99027.00;10391814;28;20614;-36
2022/12/09 00:33:56;;;;;;;10.10;7.90;;;;;;;1.14;52.96;99030.06;10394969;28;20287;-35
2022/12/09 00:38:58;;;;;;;12.03;9.37;;;;;;;1.33;52.34;99027.38;10390159;28;20246;-34
2022/12/09 00:44:00;;;;;;;8.53;6.80;;;;;;;1.22;52.86;99022.28;10395637;28;20539;-35
2022/12/09 00:49:03;;;;;;;6.97;5.17;;;;;;;0.78;52.87;99021.88;10393908;28;20709;-35
2022/12/09 00:54:05;;;;;;;7.77;6.97;;;;;;;-0.06;54.19;99000.34;10389898;28;20236;-34
2022/12/09 00:59:07;;;;;;;6.50;5.23;;;;;;;-0.88;56.40;98987.25;10384016;28;20238;-34
2022/12/09 01:04:08;;;;;;;8.30;6.23;;;;;;;-1.37;56.54;98981.69;10392167;28;20234;-34
2022/12/09 01:09:12;;;;;;;10.07;8.30;;;;;;;-1.23;58.11;98962.16;10390919;28;20250;-34
2022/12/09 01:14:14;;;;;;;11.13;8.40;;;;;;;-0.84;57.45;98976.38;10382452;28;21202;-34
2022/12/09 01:19:16;;;;;;;11.53;8.83;;;;;;;0.12;56.23;98974.22;10375778;28;20321;-36
2022/12/09 01:24:18;;;;;;;12.53;9.90;;;;;;;-1.07;57.56;98969.59;10392397;28;20579;-32
2022/12/09 01:29:19;;;;;;;12.97;9.63;;;;;;;-0.26;56.74;98981.03;10394202;28;20235;-36
2022/12/09 01:34:21;;;;;;;14.57;10.90;;;;;;;0.57;54.69;98948.31;10392741;28;20221;-32
2022/12/09 01:39:23;;;;;;;12.90;9.83;;;;;;;-0.19;55.39;98965.56;10382674;28;20848;-33
2022/12/09 01:44:26;;;;;;;12.30;9.87;;;;;;;-0.78;55.79;98953.97;10383632;28;20244;-36
2022/12/09 01:49:36;;;;;;;12.73;10.67;;;;;;;-0.98;57.16;98958.28;10389072;28;20660;-33
2022/12/09 01:54:40;;;;;;;14.17;10.37;;;;;;;-0.70;56.53;98955.97;10393104;28;20233;-34
2022/12/09 01:59:43;;;;;;;12.07;9.40;;;;;;;-0.25;55.90;98938.03;10385472;28;20265;-36
2022/12/09 02:04:47;;;;;;;11.80;9.67;;;;;;;-0.66;55.98;98931.06;10386262;28;20256;-33
2022/12/09 02:09:53;;;;;;;13.83;9.67;;;;;;;-1.22;58.17;98913.94;10387788;28;20731;-36
2022/12/09 02:15:16;;;;;;;15.13;11.53;;;;;;;-0.83;58.52;98907.06;10386929;28;20684;-35
2022/12/09 02:20:42;;;;;;;16.60;11.20;;;;;;;-0.07;56.55;98888.19;10383376;28;20229;-34
2022/12/09 02:26:06;;;;;;;15.70;10.20;;;;;;;-0.16;56.59;98890.84;10370325;28;20236;-34
2022/12/09 02:36:22;;;;;;;15.40;11.50;;;;;;;0.31;55.85;98877.84;10345690;28;20227;-35
2022/12/09 02:41:31;;;;;;;13.93;11.50;;;;;;;-0.20;57.53;98892.88;10343410;28;20261;-35
2022/12/09 02:46:35;;;;;;;16.47;12.10;;;;;;;-1.31;59.63;98878.81;10343240;28;20240;-34
2022/12/09 02:51:40;;;;;;;16.43;11.90;;;;;;;-1.33;60.25;98858.88;10348823;28;20655;-35
2022/12/09 02:57:01;;;;;;;17.50;12.50;;;;;;;-1.02;60.14;98849.22;10342533;28;20649;-35
2022/12/09 03:02:14;;;;;;;14.33;10.93;;;;;;;-1.43;60.69;98832.59;10349561;28;20242;-35
2022/12/09 03:07:23;;;;;;;19.40;12.23;;;;;;;-0.99;60.04;98825.34;10333844;28;20242;-34
2022/12/09 03:12:29;;;;;;;17.13;11.97;;;;;;;-1.37;61.04;98809.28;10348380;28;20253;-35
2022/12/09 03:17:34;;;;;;;18.17;13.10;;;;;;;-1.54;60.84;98804.63;10356218;28;20243;-34
2022/12/09 03:22:38;;;;;;;18.27;13.00;;;;;;;-1.60;60.65;98789.41;10341423;28;20320;-35
2022/12/09 03:27:54;;;;;;;17.97;13.47;;;;;;;-1.22;59.80;98793.19;10345411;28;20419;-35
2022/12/09 03:32:57;;;;;;;17.10;12.83;;;;;;;-1.41;59.38;98791.31;10349259;28;20234;-34
2022/12/09 03:38:03;;;;;;;13.70;11.00;;;;;;;-1.05;59.05;98778.59;10345921;28;20567;-34
2022/12/09 03:43:13;;;;;;;17.70;11.87;;;;;;;-1.08;58.69;98779.66;10353686;28;20229;-35
2022/12/09 03:48:15;;;;;;;16.07;12.03;;;;;;;-0.80;56.90;98770.22;10355099;28;20240;-35
2022/12/09 03:53:35;;;;;;;15.77;11.40;;;;;;;-1.50;58.43;98779.78;10354882;28;20258;-35
2022/12/09 03:58:41;;;;;;;16.50;12.10;;;;;;;-2.02;59.25;98769.31;10344750;28;20724;-34
2022/12/09 04:03:46;;;;;;;16.40;10.97;;;;;;;-1.84;59.54;98776.56;10354303;28;20328;-34
2022/12/09 04:08:48;;;;;;;13.73;10.40;;;;;;;-2.40;59.54;98777.69;10356716;28;20272;-34
2022/12/09 04:13:50;;;;;;;13.47;9.63;;;;;;;-2.09;59.21;98767.31;10349196;28;20584;-34
2022/12/09 04:18:52;;;;;;;14.03;10.73;;;;;;;-2.45;60.04;98751.03;10351136;28;20241;-35
2022/12/09 04:23:54;;;;;;;10.73;9.57;;;;;;;-2.54;59.93;98745.59;10354690;28;20284;-34
2022/12/09 04:28:56;;;;;;;14.07;9.43;;;;;;;-2.04;59.73;98729.25;10354572;28;20237;-35
2022/12/09 04:33:59;;;;;;;12.27;9.70;;;;;;;-2.46;60.02;98726.59;10352589;28;20272;-34
2022/12/09 04:39:09;;;;;;;11.93;9.20;;;;;;;-1.80;58.66;98702.75;10349040;28;20336;-34
2022/12/09 04:44:11;;;;;;;12.67;9.37;;;;;;;-1.92;58.32;98707.25;10351866;28;20284;-34
2022/12/09 04:49:13;;;;;;;11.57;8.93;;;;;;;-2.28;59.91;98689.38;10355227;28;20241;-34
2022/12/09 04:54:15;;;;;;;12.53;9.67;;;;;;;-2.51;60.48;98668.53;10353700;28;20247;-34
2022/12/09 04:59:17;;;;;;;12.73;9.70;;;;;;;-2.38;59.02;98695.38;10347934;28;20620;-34
2022/12/09 05:04:19;;;;;;;13.73;10.57;;;;;;;-3.00;61.26;98683.03;10344148;28;20332;-34
2022/12/09 05:09:45;;;;;;;13.57;10.03;;;;;;;-2.31;59.87;98679.97;10355363;28;20704;-34
2022/12/09 05:15:11;;;;;;;15.13;10.97;;;;;;;-1.74;58.61;98668.13;10353249;28;20313;-34
2022/12/09 05:20:38;;;;;;;15.43;11.37;;;;;;;-2.51;60.06;98673.75;10349047;28;20229;-34
2022/12/09 05:26:06;;;;;;;16.93;11.50;;;;;;;-2.17;60.15;98665.69;10362879;28;20252;-34
2022/12/09 05:31:32;;;;;;;15.37;11.77;;;;;;;-2.78;61.36;98675.06;10354330;28;20241;-34
2022/12/09 05:36:59;;;;;;;15.80;12.47;;;;;;;-2.23;60.50;98666.22;10354925;28;20264;-34
2022/12/09 05:42:24;;;;;;;15.07;12.30;;;;;;;-2.63;61.71;98665.13;10361243;28;20621;-34
2022/12/09 05:47:50;;;;;;;17.23;12.10;;;;;;;-2.17;60.48;98637.72;10352650;28;20237;-34
2022/12/09 05:53:16;;;;;;;16.80;11.93;;;;;;;-1.87;59.81;98636.03;10347515;28;20241;-34
2022/12/09 05:58:41;;;;;;;15.57;12.20;;;;;;;-2.42;59.80;98651.22;10351174;28;20233;-34
2022/12/09 06:04:07;;;;;;;21.43;12.47;;;;;;;-1.49;58.76;98625.81;10351273;28;20221;-34
2022/12/09 06:09:33;;;;;;;13.90;11.13;;;;;;;-1.65;57.77;98645.53;10348468;28;20246;-34
2022/12/09 19:07:16;;;;;;;25.43;17.97;;;;;;;0.44;59.68;98633.56;10447955;28;20537;-64
2022/12/09 19:12:18;;;;;;;26.23;17.27;;;;;;;0.47;59.81;98635.88;10451482;28;20229;-63
2022/12/09 19:17:41;;;;;;;29.63;17.60;;;;;;;0.24;60.02;98650.41;10443314;28;20269;-63
2022/12/09 19:22:46;;;;;;;24.87;17.07;;;;;;;-0.47;61.53;98665.72;10446805;28;20239;-63
2022/12/09 19:27:47;;;;;;;23.90;17.00;;;;;;;0.49;60.08;98643.63;10458110;28;21149;-62
2022/12/09 19:32:49;;;;;;;23.80;16.67;;;;;;;0.53;59.73;98628.38;10451352;28;20619;-62
2022/12/09 19:37:53;;;;;;;24.30;15.87;;;;;;;0.16;59.84;98647.66;10447078;28;20276;-62
2022/12/09 19:43:02;;;;;;;24.50;17.10;;;;;;;0.44;59.60;98646.72;10442414;28;20268;-63
2022/12/09 19:48:04;;;;;;;26.73;18.83;;;;;;;-0.06;60.76;98663.66;10449079;28;20230;-63
2022/12/09 19:53:05;;;;;;;23.97;16.67;;;;;;;0.41;60.19;98646.16;10440111;28;20593;-63
2022/12/09 19:58:07;;;;;;;24.83;17.63;;;;;;;0.83;59.13;98638.59;10446547;28;20321;-63
2022/12/09 20:03:09;;;;;;;23.37;16.77;;;;;;;0.20;60.31;98660.41;10443957;28;20249;-63
2022/12/09 20:08:11;;;;;;;26.27;16.73;;;;;;;0.07;61.12;98670.41;10446845;28;20881;-63
2022/12/09 20:13:14;;;;;;;22.00;16.67;;;;;;;1.12;59.27;98640.19;10453092;28;20244;-64
2022/12/09 20:18:16;;;;;;;25.73;17.20;;;;;;;0.78;59.28;98648.75;10430562;28;20245;-63
2022/12/09 20:23:18;;;;;;;23.47;16.40;;;;;;;1.73;57.54;98627.97;10443420;28;20233;-63
2022/12/09 20:28:19;;;;;;;26.50;17.73;;;;;;;0.75;58.99;98658.72;10438178;28;20244;-67
2022/12/09 20:33:21;;;;;;;21.90;16.10;;;;;;;1.00;58.26;98651.91;10443266;28;20233;-65
2022/12/09 20:38:23;;;;;;;22.80;16.30;;;;;;;0.84;58.76;98671.03;10437859;28;20241;-66
2022/12/09 20:43:25;;;;;;;24.00;16.53;;;;;;;0.67;58.85;98668.19;10446031;28;20889;-64
2022/12/09 20:48:26;;;;;;;19.53;15.30;;;;;;;0.91;58.98;98666.81;10433815;28;20272;-65
2022/12/09 20:53:28;;;;;;;22.70;16.47;;;;;;;1.26;57.89;98659.06;10436400;28;20747;-65
2022/12/09 20:58:30;;;;;;;25.03;17.13;;;;;;;1.14;57.80;98659.28;10445849;28;20239;-69
2022/12/09 21:03:31;;;;;;;24.90;17.53;;;;;;;0.52;59.27;98676.75;10434456;28;20239;-71
2022/12/09 21:08:33;;;;;;;23.67;17.03;;;;;;;1.64;57.74;98651.81;10435241;28;20256;-68
2022/12/09 21:13:39;;;;;;;24.90;16.07;;;;;;;0.91;58.63;98669.44;10406231;28;20234;-68
2022/12/09 21:18:42;;;;;;;22.10;15.97;;;;;;;0.36;58.96;98686.09;10447441;28;20242;-68
2022/12/09 21:23:43;;;;;;;25.57;18.07;;;;;;;1.03;58.98;98670.06;10438847;28;20237;-69
2022/12/09 21:28:45;;;;;;;25.47;16.20;;;;;;;0.35;59.39;98684.44;10437069;28;20244;-68
2022/12/09 21:33:49;;;;;;;22.77;16.93;;;;;;;-0.34;61.25;98704.81;10439682;28;20778;-67
2022/12/09 21:38:52;;;;;;;21.37;15.60;;;;;;;0.19;60.34;98706.13;10448342;28;20235;-68
2022/12/09 21:43:54;;;;;;;22.63;16.40;;;;;;;0.84;59.47;98682.38;10438676;28;20234;-67
2022/12/09 21:48:57;;;;;;;21.83;16.07;;;;;;;1.07;58.47;98674.06;10447812;28;20232;-62
2022/12/09 21:54:04;;;;;;;21.27;16.20;;;;;;;0.48;60.08;98699.91;10444503;28;20233;-67
2022/12/09 21:59:06;;;;;;;24.07;16.97;;;;;;;0.28;60.46;98726.28;10444153;28;20767;-68
2022/12/09 22:04:11;;;;;;;24.97;16.60;;;;;;;-0.15;60.65;98732.88;10441226;28;20906;-69
2022/12/09 22:09:13;;;;;;;22.77;16.07;;;;;;;0.49;59.45;98706.81;10444395;28;20283;-67
2022/12/09 22:14:15;;;;;;;22.73;16.33;;;;;;;1.12;58.09;98694.66;10431482;28;20236;-69
2022/12/09 22:19:19;;;;;;;25.43;16.90;;;;;;;0.16;59.65;98745.00;10427070;28;20229;-66
2022/12/09 22:24:21;;;;;;;23.07;16.10;;;;;;;0.67;58.74;98707.69;10425994;28;20601;-65
2022/12/09 22:29:23;;;;;;;23.40;16.27;;;;;;;0.31;59.59;98728.66;10435521;28;20642;-67
2022/12/09 22:34:24;;;;;;;22.23;16.10;;;;;;;0.13;59.80;98731.19;10434236;28;20230;-68
2022/12/09 22:39:26;;;;;;;23.93;16.37;;;;;;;0.10;60.33;98733.25;10437185;28;20233;-66
2022/12/09 22:44:28;;;;;;;24.13;16.73;;;;;;;-0.86;61.59;98762.84;10435169;28;20717;-70
2022/12/09 22:49:29;;;;;;;23.27;15.93;;;;;;;-0.45;60.83;98749.69;10425504;28;20244;-70
2022/12/09 22:54:31;;;;;;;21.73;16.27;;;;;;;0.08;59.26;98727.31;10436165;28;20304;-69
2022/12/09 22:59:33;;;;;;;21.20;16.00;;;;;;;-0.18;60.20;98750.75;10431586;28;20238;-64
2022/12/09 23:04:41;;;;;;;21.27;15.73;;;;;;;0.22;59.92;98732.13;10413868;28;20784;-71
2022/12/09 23:09:43;;;;;;;23.57;16.07;;;;;;;0.67;58.75;98706.88;10432194;28;20232;-70
2022/12/09 23:14:45;;;;;;;23.57;15.83;;;;;;;0.15;59.36;98730.22;10433425;28;20236;-66
2022/12/09 23:19:46;;;;;;;23.20;16.07;;;;;;;-0.40;60.12;98751.88;10424833;28;20724;-68
2022/12/09 23:24:48;;;;;;;23.93;16.30;;;;;;;-0.26;58.87;98746.22;10435782;28;20299;-67
2022/12/09 23:29:50;;;;;;;22.30;16.23;;;;;;;-0.10;59.84;98743.84;10426535;28;20236;-67
2022/12/09 23:34:51;;;;;;;23.90;16.60;;;;;;;-0.45;60.06;98754.94;10407227;28;20224;-70
2022/12/09 23:39:54;;;;;;;24.00;16.03;;;;;;;0.04;59.09;98739.09;10426009;28;20227;-69
2022/12/09 23:44:55;;;;;;;22.37;15.63;;;;;;;0.64;57.84;98709.81;10421849;28;20251;-64
2022/12/09 23:49:57;;;;;;;23.00;17.00;;;;;;;-0.36;59.47;98743.56;10422736;28;20230;-69
2022/12/09 23:54:59;;;;;;;19.47;15.73;;;;;;;-0.61;59.66;98756.25;10429693;28;20234;-69
